createdAt,value
2022-08-01T00:00:18.112Z,21.10
2022-08-01T00:02:44.895Z,21.20
2022-08-01T00:05:12.290Z,21.20
2022-08-01T00:07:39.185Z,21.20
2022-08-01T00:10:13.165Z,21.20
2022-08-01T00:12:41.090Z,21.20
2022-08-01T00:15:10.324Z,21.20
2022-08-01T00:17:37.665Z,21.20
2022-08-01T00:20:09.052Z,21.20
2022-08-01T00:22:36.316Z,21.20
2022-08-01T00:25:04.611Z,21.20
2022-08-01T00:27:32.714Z,21.20
2022-08-01T00:30:12.696Z,21.30
2022-08-01T00:32:43.272Z,21.20
2022-08-01T00:35:10.573Z,21.20
2022-08-01T00:37:38.222Z,21.20
2022-08-01T00:40:05.994Z,21.20
2022-08-01T00:42:32.934Z,21.10
2022-08-01T00:45:00.569Z,21.10
2022-08-01T00:47:27.420Z,21.10
2022-08-01T00:49:54.397Z,21.00
2022-08-01T00:52:21.447Z,21.00
2022-08-01T00:54:50.116Z,20.90
2022-08-01T00:57:27.874Z,20.90
2022-08-01T01:00:06.154Z,20.80
2022-08-01T01:02:33.752Z,20.80
2022-08-01T01:05:00.607Z,20.80
2022-08-01T01:07:36.104Z,20.80
2022-08-01T01:10:09.041Z,20.80
2022-08-01T01:12:52.607Z,20.80
2022-08-01T01:15:27.462Z,20.80
2022-08-01T01:18:01.895Z,20.70
2022-08-01T01:20:37.199Z,20.70
2022-08-01T01:23:11.086Z,20.70
2022-08-01T01:25:38.111Z,20.70
2022-08-01T01:28:33.654Z,20.60
2022-08-01T01:31:02.222Z,20.50
2022-08-01T01:33:32.902Z,20.50
2022-08-01T01:36:11.383Z,20.50
2022-08-01T01:38:45.175Z,20.50
2022-08-01T01:41:13.887Z,20.40
2022-08-01T01:43:42.347Z,20.40
2022-08-01T01:46:11.819Z,20.40
2022-08-01T01:48:40.972Z,20.40
2022-08-01T01:51:08.820Z,20.40
2022-08-01T01:53:36.902Z,20.40
2022-08-01T01:56:04.821Z,20.40
2022-08-01T01:58:34.788Z,20.40
2022-08-01T02:01:03.953Z,20.40
2022-08-01T02:03:32.664Z,20.40
2022-08-01T02:06:01.821Z,20.40
2022-08-01T02:08:32.020Z,20.30
2022-08-01T02:11:20.103Z,20.40
2022-08-01T02:14:06.309Z,20.40
2022-08-01T02:16:37.217Z,20.40
2022-08-01T02:19:08.075Z,20.50
2022-08-01T02:21:45.124Z,20.50
2022-08-01T02:24:22.689Z,20.50
2022-08-01T02:27:02.739Z,20.50
2022-08-01T02:29:40.797Z,20.50
2022-08-01T02:32:12.877Z,20.40
2022-08-01T02:34:42.240Z,20.40
2022-08-01T02:37:10.862Z,20.40
2022-08-01T02:39:40.888Z,20.30
2022-08-01T02:42:09.686Z,20.40
2022-08-01T02:44:40.704Z,20.30
2022-08-01T02:47:08.086Z,20.30
2022-08-01T02:49:46.392Z,20.30
2022-08-01T02:52:23.219Z,20.30
2022-08-01T02:54:54.623Z,20.30
2022-08-01T02:57:23.337Z,20.30
2022-08-01T02:59:59.316Z,20.30
2022-08-01T03:02:27.944Z,20.30
2022-08-01T03:04:57.229Z,20.30
2022-08-01T03:07:25.416Z,20.20
2022-08-01T03:10:03.284Z,20.10
2022-08-01T03:12:34.135Z,20.10
2022-08-01T03:15:03.390Z,20.10
2022-08-01T03:17:31.747Z,20.10
2022-08-01T03:20:04.423Z,20.00
2022-08-01T03:22:35.589Z,20.00
2022-08-01T03:25:04.343Z,19.90
2022-08-01T03:27:32.211Z,19.90
2022-08-01T03:30:03.438Z,19.90
2022-08-01T03:32:32.762Z,19.90
2022-08-01T03:35:01.945Z,19.90
2022-08-01T03:37:35.359Z,19.90
2022-08-01T03:40:09.898Z,19.90
2022-08-01T03:42:43.032Z,19.90
2022-08-01T03:45:26.298Z,19.90
2022-08-01T03:48:01.727Z,19.90
2022-08-01T03:50:32.143Z,19.80
2022-08-01T03:53:02.647Z,19.80
2022-08-01T03:55:32.339Z,19.80
2022-08-01T03:58:01.180Z,19.80
2022-08-01T04:00:28.964Z,19.80
2022-08-01T04:02:56.480Z,19.80
2022-08-01T04:05:23.575Z,19.80
2022-08-01T04:07:57.336Z,19.80
2022-08-01T04:10:25.421Z,19.80
2022-08-01T04:12:52.964Z,19.80
2022-08-01T04:15:21.479Z,19.70
2022-08-01T04:17:49.533Z,19.80
2022-08-01T04:20:18.589Z,19.80
2022-08-01T04:22:45.607Z,19.90
2022-08-01T04:25:16.942Z,19.90
2022-08-01T04:27:49.953Z,19.90
2022-08-01T04:30:27.056Z,19.80
2022-08-01T04:32:58.709Z,20.00
2022-08-01T04:36:02.242Z,20.00
2022-08-01T04:38:24.231Z,20.00
2022-08-01T04:40:55.815Z,20.20
2022-08-01T04:43:23.969Z,20.50
2022-08-01T04:45:52.949Z,20.70
2022-08-01T04:48:22.775Z,20.70
2022-08-01T04:50:51.498Z,20.70
2022-08-01T04:53:26.256Z,20.60
2022-08-01T04:55:53.263Z,20.60
2022-08-01T04:58:21.393Z,20.70
2022-08-01T05:00:48.328Z,20.70
2022-08-01T05:03:16.296Z,20.70
2022-08-01T05:05:43.291Z,20.80
2022-08-01T05:08:12.016Z,20.90
2022-08-01T05:10:39.111Z,21.00
2022-08-01T05:13:07.512Z,21.00
2022-08-01T05:15:37.713Z,21.10
2022-08-01T05:18:05.309Z,21.10
2022-08-01T05:20:34.854Z,21.20
2022-08-01T05:23:03.124Z,21.30
2022-08-01T05:25:56.369Z,21.30
2022-08-01T05:28:19.134Z,21.30
2022-08-01T05:30:46.575Z,21.40
2022-08-01T05:33:13.725Z,21.40
2022-08-01T05:35:47.490Z,21.50
2022-08-01T05:38:16.532Z,21.50
2022-08-01T05:40:48.856Z,21.50
2022-08-01T05:43:15.860Z,21.60
2022-08-01T05:45:42.995Z,21.60
2022-08-01T05:48:10.681Z,21.70
2022-08-01T05:50:37.566Z,21.80
2022-08-01T05:53:04.847Z,21.60
2022-08-01T05:55:31.923Z,21.50
2022-08-01T05:57:58.952Z,21.50
2022-08-01T06:00:25.847Z,21.50
2022-08-01T06:02:53.386Z,21.50
2022-08-01T06:05:20.349Z,21.60
2022-08-01T06:07:47.171Z,21.70
2022-08-01T06:10:14.242Z,21.90
2022-08-01T06:12:43.133Z,22.00
2022-08-01T06:15:10.301Z,22.10
2022-08-01T06:17:37.160Z,22.10
2022-08-01T06:20:09.903Z,22.10
2022-08-01T06:22:36.958Z,22.10
2022-08-01T06:25:07.368Z,22.30
2022-08-01T06:27:37.428Z,22.40
2022-08-01T06:30:08.544Z,22.40
2022-08-01T06:32:35.297Z,22.50
2022-08-01T06:35:02.085Z,22.60
2022-08-01T06:37:33.515Z,22.70
2022-08-01T06:40:05.035Z,22.70
2022-08-01T06:42:38.259Z,22.70
2022-08-01T06:45:06.183Z,22.70
2022-08-01T06:47:33.354Z,22.90
2022-08-01T06:50:01.624Z,22.90
2022-08-01T06:52:28.570Z,22.90
2022-08-01T06:54:55.384Z,22.90
2022-08-01T06:57:22.416Z,22.80
2022-08-01T06:59:54.443Z,22.90
2022-08-01T07:02:23.982Z,22.80
2022-08-01T07:04:50.725Z,22.90
2022-08-01T07:07:17.553Z,23.00
2022-08-01T07:09:44.313Z,23.00
2022-08-01T07:12:12.089Z,23.00
2022-08-01T07:14:38.886Z,23.10
2022-08-01T07:17:06.294Z,23.40
2022-08-01T07:19:33.255Z,23.40
2022-08-01T07:21:59.973Z,23.40
2022-08-01T07:24:27.000Z,23.30
2022-08-01T07:26:55.979Z,23.40
2022-08-01T07:29:24.141Z,23.50
2022-08-01T07:31:52.292Z,23.70
2022-08-01T07:34:19.015Z,23.90
2022-08-01T07:36:46.749Z,23.90
2022-08-01T07:39:13.752Z,23.90
2022-08-01T07:41:53.017Z,23.80
2022-08-01T07:44:28.092Z,23.70
2022-08-01T07:46:55.994Z,23.80
2022-08-01T07:49:22.968Z,23.90
2022-08-01T07:52:03.679Z,23.90
2022-08-01T07:54:37.120Z,24.00
2022-08-01T07:57:04.932Z,24.00
2022-08-01T07:59:31.795Z,24.10
2022-08-01T08:01:58.892Z,24.20
2022-08-01T08:04:26.759Z,24.30
2022-08-01T08:06:54.415Z,24.40
2022-08-01T08:09:21.648Z,24.20
2022-08-01T08:11:48.659Z,24.30
2022-08-01T08:14:18.904Z,24.40
2022-08-01T08:16:46.454Z,24.50
2022-08-01T08:19:13.256Z,24.60
2022-08-01T08:21:40.312Z,24.60
2022-08-01T08:24:26.384Z,24.50
2022-08-01T08:26:59.362Z,24.40
2022-08-01T08:29:27.520Z,24.40
2022-08-01T08:31:55.734Z,24.30
2022-08-01T08:34:24.499Z,24.40
2022-08-01T08:36:52.245Z,24.60
2022-08-01T08:39:19.925Z,24.80
2022-08-01T08:41:49.674Z,24.80
2022-08-01T08:44:18.266Z,24.90
2022-08-01T08:46:48.950Z,25.00
2022-08-01T08:49:25.826Z,25.10
2022-08-01T08:51:54.206Z,25.20
2022-08-01T08:54:27.697Z,25.20
2022-08-01T08:56:59.551Z,25.20
2022-08-01T08:59:27.513Z,25.30
2022-08-01T09:01:54.556Z,25.40
2022-08-01T09:04:26.524Z,25.20
2022-08-01T09:06:54.868Z,25.20
2022-08-01T09:09:21.663Z,25.40
2022-08-01T09:11:56.562Z,25.40
2022-08-01T09:14:27.130Z,25.40
2022-08-01T09:17:09.609Z,25.60
2022-08-01T09:19:40.082Z,25.70
2022-08-01T09:22:10.653Z,25.80
2022-08-01T09:24:38.241Z,25.90
2022-08-01T09:27:22.791Z,25.80
2022-08-01T09:30:00.841Z,26.10
2022-08-01T09:32:36.420Z,26.20
2022-08-01T09:35:36.220Z,26.10
2022-08-01T09:38:18.914Z,25.90
2022-08-01T09:40:52.387Z,25.70
2022-08-01T09:43:21.007Z,25.80
2022-08-01T09:45:50.931Z,26.00
2022-08-01T09:48:22.720Z,26.10
2022-08-01T09:50:55.353Z,26.20
2022-08-01T09:53:29.566Z,26.30
2022-08-01T09:56:13.056Z,26.40
2022-08-01T09:59:02.330Z,26.40
2022-08-01T10:01:43.157Z,26.50
2022-08-01T10:04:10.936Z,26.60
2022-08-01T10:06:39.950Z,26.70
2022-08-01T10:09:08.492Z,26.80
2022-08-01T10:11:39.922Z,26.60
2022-08-01T10:14:08.469Z,26.80
2022-08-01T10:16:38.446Z,26.80
2022-08-01T10:19:14.516Z,26.60
2022-08-01T10:21:56.639Z,26.80
2022-08-01T10:24:27.239Z,26.90
2022-08-01T10:27:05.902Z,27.10
2022-08-01T10:30:14.266Z,27.10
2022-08-01T10:32:52.950Z,27.00
2022-08-01T10:35:47.255Z,26.70
2022-08-01T10:38:10.681Z,26.80
2022-08-01T10:40:41.407Z,26.70
2022-08-01T10:43:10.619Z,26.90
2022-08-01T10:45:37.697Z,27.10
2022-08-01T10:48:15.693Z,27.00
2022-08-01T10:50:50.356Z,27.00
2022-08-01T10:53:31.661Z,27.10
2022-08-01T10:56:12.786Z,27.10
2022-08-01T10:58:44.090Z,27.30
2022-08-01T11:01:22.466Z,27.10
2022-08-01T11:04:16.045Z,27.10
2022-08-01T11:06:50.184Z,27.30
2022-08-01T11:09:38.501Z,27.40
2022-08-01T11:12:13.477Z,27.50
2022-08-01T11:14:59.834Z,27.70
2022-08-01T11:17:45.043Z,27.40
2022-08-01T11:20:11.955Z,27.50
2022-08-01T11:23:05.907Z,27.40
2022-08-01T11:26:05.786Z,27.70
2022-08-01T11:28:32.049Z,27.80
2022-08-01T11:31:14.117Z,27.90
2022-08-01T11:33:46.071Z,27.90
2022-08-01T11:36:36.859Z,28.00
2022-08-01T11:39:13.105Z,27.60
2022-08-01T11:41:41.943Z,27.20
2022-08-01T11:44:14.492Z,27.40
2022-08-01T11:46:57.788Z,27.60
2022-08-01T11:49:50.351Z,27.90
2022-08-01T11:52:18.980Z,28.20
2022-08-01T11:54:50.605Z,28.30
2022-08-01T11:57:32.461Z,28.20
2022-08-01T12:00:08.608Z,28.30
2022-08-01T12:02:41.778Z,28.50
2022-08-01T12:05:21.557Z,28.70
2022-08-01T12:07:54.292Z,28.70
2022-08-01T12:10:23.789Z,29.00
2022-08-01T12:12:52.954Z,29.20
2022-08-01T12:15:22.831Z,29.40
2022-08-01T12:17:59.687Z,28.70
2022-08-01T12:20:56.136Z,28.60
2022-08-01T12:23:24.320Z,28.70
2022-08-01T12:25:54.462Z,28.90
2022-08-01T12:28:21.612Z,28.90
2022-08-01T12:30:49.324Z,29.10
2022-08-01T12:33:19.838Z,29.20
2022-08-01T12:35:47.612Z,28.90
2022-08-01T12:38:23.875Z,29.00
2022-08-01T12:40:51.535Z,29.20
2022-08-01T12:43:27.972Z,29.50
2022-08-01T12:45:59.959Z,29.70
2022-08-01T12:48:27.830Z,30.00
2022-08-01T12:50:58.339Z,30.20
2022-08-01T12:53:25.571Z,30.30
2022-08-01T12:55:58.121Z,30.30
2022-08-01T12:58:36.383Z,30.30
2022-08-01T13:01:09.087Z,30.40
2022-08-01T13:03:36.339Z,30.30
2022-08-01T13:06:12.191Z,30.20
2022-08-01T13:08:39.571Z,30.20
2022-08-01T13:11:15.349Z,30.30
2022-08-01T13:13:52.678Z,30.40
2022-08-01T13:16:31.106Z,29.70
2022-08-01T13:19:06.652Z,29.50
2022-08-01T13:21:34.326Z,29.40
2022-08-01T13:24:27.405Z,29.20
2022-08-01T13:27:03.398Z,29.10
2022-08-01T13:29:34.488Z,28.90
2022-08-01T13:32:13.573Z,28.50
2022-08-01T13:35:04.481Z,28.10
2022-08-01T13:37:31.281Z,27.50
2022-08-01T13:39:59.999Z,27.10
2022-08-01T13:42:26.930Z,26.70
2022-08-01T13:44:53.671Z,26.90
2022-08-01T13:47:31.456Z,26.80
2022-08-01T13:50:02.882Z,27.00
2022-08-01T13:52:30.289Z,27.00
2022-08-01T13:54:57.318Z,27.10
2022-08-01T13:57:24.224Z,26.90
2022-08-01T13:59:52.293Z,26.90
2022-08-01T14:02:20.776Z,26.90
2022-08-01T14:04:47.690Z,26.80
2022-08-01T14:07:15.187Z,26.80
2022-08-01T14:10:04.398Z,26.70
2022-08-01T14:12:29.893Z,26.60
2022-08-01T14:14:57.377Z,26.50
2022-08-01T14:17:24.409Z,26.60
2022-08-01T14:19:51.426Z,26.50
2022-08-01T14:22:18.162Z,26.50
2022-08-01T14:24:44.918Z,26.50
2022-08-01T14:27:11.793Z,26.30
2022-08-01T14:30:02.133Z,26.10
2022-08-01T14:32:28.436Z,25.80
2022-08-01T14:34:57.065Z,25.70
2022-08-01T14:37:29.187Z,25.60
2022-08-01T14:40:08.518Z,25.60
2022-08-01T14:42:37.817Z,25.60
2022-08-01T14:45:09.242Z,25.60
2022-08-01T14:47:37.719Z,25.50
2022-08-01T14:50:07.157Z,25.60
2022-08-01T14:52:35.250Z,25.70
2022-08-01T14:55:02.476Z,25.90
2022-08-01T14:57:29.547Z,25.80
2022-08-01T14:59:57.038Z,25.80
2022-08-01T15:02:24.383Z,25.70
2022-08-01T15:04:51.789Z,25.70
2022-08-01T15:07:19.131Z,25.60
2022-08-01T15:09:46.149Z,25.70
2022-08-01T15:12:13.104Z,25.60
2022-08-01T15:14:49.107Z,25.60
2022-08-01T15:17:15.800Z,25.60
2022-08-01T15:19:42.927Z,25.60
2022-08-01T15:22:10.582Z,25.60
2022-08-01T15:24:37.471Z,25.60
2022-08-01T15:27:05.415Z,25.50
2022-08-01T15:29:34.015Z,25.40
2022-08-01T15:32:01.983Z,25.50
2022-08-01T15:34:28.755Z,25.50
2022-08-01T15:36:55.846Z,25.50
2022-08-01T15:39:22.788Z,25.40
2022-08-01T15:41:50.308Z,25.30
2022-08-01T15:44:20.713Z,25.00
2022-08-01T15:46:49.013Z,24.80
2022-08-01T15:49:17.710Z,24.60
2022-08-01T15:51:44.664Z,24.50
2022-08-01T15:54:14.558Z,24.30
2022-08-01T15:56:41.891Z,24.10
2022-08-01T15:59:08.855Z,23.90
2022-08-01T16:01:35.882Z,23.90
2022-08-01T16:04:03.568Z,23.90
2022-08-01T16:06:30.575Z,23.90
2022-08-01T16:08:57.829Z,23.70
2022-08-01T16:11:26.837Z,23.80
2022-08-01T16:13:54.737Z,23.70
2022-08-01T16:16:22.080Z,23.80
2022-08-01T16:18:53.601Z,23.70
2022-08-01T16:21:22.600Z,23.50
2022-08-01T16:23:49.431Z,23.50
2022-08-01T16:26:27.611Z,23.50
2022-08-01T16:28:55.335Z,23.50
2022-08-01T16:31:36.113Z,23.40
2022-08-01T16:34:08.887Z,23.50
2022-08-01T16:36:36.451Z,23.40
2022-08-01T16:39:05.301Z,23.40
2022-08-01T16:41:32.025Z,23.50
2022-08-01T16:44:04.639Z,23.50
2022-08-01T16:46:33.498Z,23.60
2022-08-01T16:49:00.419Z,23.70
2022-08-01T16:51:27.609Z,23.60
2022-08-01T16:53:54.503Z,23.60
2022-08-01T16:56:21.411Z,23.60
2022-08-01T16:58:48.238Z,23.70
2022-08-01T17:01:58.541Z,23.70
2022-08-01T17:04:05.215Z,23.60
2022-08-01T17:06:32.088Z,23.60
2022-08-01T17:08:59.244Z,23.60
2022-08-01T17:11:25.996Z,23.70
2022-08-01T17:13:52.973Z,23.70
2022-08-01T17:16:19.999Z,23.70
2022-08-01T17:18:46.777Z,23.90
2022-08-01T17:21:13.513Z,23.90
2022-08-01T17:23:40.453Z,24.00
2022-08-01T17:26:07.319Z,24.20
2022-08-01T17:28:34.091Z,24.70
2022-08-01T17:31:00.876Z,25.00
2022-08-01T17:33:44.644Z,25.00
2022-08-01T17:36:13.476Z,25.00
2022-08-01T17:38:40.263Z,25.10
2022-08-01T17:41:07.049Z,25.10
2022-08-01T17:43:33.967Z,25.00
2022-08-01T17:46:01.276Z,24.90
2022-08-01T17:48:29.324Z,24.80
2022-08-01T17:50:56.121Z,24.70
2022-08-01T17:53:23.936Z,24.60
2022-08-01T17:55:53.502Z,24.50
2022-08-01T17:58:36.664Z,24.50
2022-08-01T18:01:16.843Z,24.40
2022-08-01T18:03:44.743Z,24.30
2022-08-01T18:06:23.511Z,24.10
2022-08-01T18:08:53.156Z,24.00
2022-08-01T18:11:23.143Z,23.90
2022-08-01T18:13:52.141Z,23.80
2022-08-01T18:16:19.048Z,23.80
2022-08-01T18:18:45.787Z,23.70
2022-08-01T18:21:12.875Z,23.60
2022-08-01T18:23:39.771Z,23.40
2022-08-01T18:26:09.253Z,23.40
2022-08-01T18:28:42.128Z,23.40
2022-08-01T18:31:16.872Z,23.20
2022-08-01T18:33:43.937Z,23.20
2022-08-01T18:36:24.609Z,23.10
2022-08-01T18:38:58.599Z,23.00
2022-08-01T18:41:25.602Z,23.00
2022-08-01T18:43:59.576Z,22.90
2022-08-01T18:46:32.763Z,22.90
2022-08-01T18:48:59.573Z,22.90
2022-08-01T18:51:27.789Z,22.90
2022-08-01T18:53:56.794Z,22.90
2022-08-01T18:56:23.832Z,22.80
2022-08-01T18:58:50.632Z,22.90
2022-08-01T19:01:17.785Z,22.90
2022-08-01T19:03:45.137Z,22.80
2022-08-01T19:06:11.932Z,22.60
2022-08-01T19:08:38.877Z,22.60
2022-08-01T19:11:06.231Z,22.50
2022-08-01T19:13:33.820Z,22.30
2022-08-01T19:16:01.101Z,22.30
2022-08-01T19:18:28.416Z,22.20
2022-08-01T19:20:55.292Z,22.00
2022-08-01T19:23:40.769Z,21.80
2022-08-01T19:26:12.900Z,21.70
2022-08-01T19:28:49.358Z,21.60
2022-08-01T19:31:16.448Z,21.50
2022-08-01T19:33:43.202Z,21.40
2022-08-01T19:36:16.588Z,21.10
2022-08-01T19:38:44.938Z,20.60
2022-08-01T19:41:13.855Z,20.60
2022-08-01T19:43:46.177Z,20.60
2022-08-01T19:46:17.649Z,20.60
2022-08-01T19:48:49.979Z,20.60
2022-08-01T19:51:22.746Z,20.60
2022-08-01T19:54:04.723Z,20.60
2022-08-01T19:56:39.583Z,20.60
2022-08-01T19:59:09.960Z,20.70
2022-08-01T20:01:37.015Z,20.70
2022-08-01T20:04:06.314Z,20.70
2022-08-01T20:06:34.816Z,20.60
2022-08-01T20:09:02.347Z,20.60
2022-08-01T20:11:29.211Z,20.60
2022-08-01T20:13:57.539Z,20.40
2022-08-01T20:16:25.748Z,20.30
2022-08-01T20:18:52.787Z,20.20
2022-08-01T20:21:20.241Z,20.10
2022-08-01T20:23:47.730Z,20.10
2022-08-01T20:26:16.573Z,20.20
2022-08-01T20:28:47.231Z,20.20
2022-08-01T20:31:16.414Z,20.30
2022-08-01T20:33:46.320Z,20.30
2022-08-01T20:36:24.948Z,20.40
2022-08-01T20:38:55.164Z,20.30
2022-08-01T20:41:26.062Z,20.30
2022-08-01T20:43:55.303Z,20.20
2022-08-01T20:46:26.890Z,20.20
2022-08-01T20:48:58.434Z,20.20
2022-08-01T20:51:26.769Z,20.30
2022-08-01T20:53:54.989Z,20.20
2022-08-01T20:56:45.937Z,20.20
2022-08-01T20:59:40.016Z,20.20
2022-08-01T21:02:48.935Z,20.10
2022-08-01T21:05:36.505Z,20.00
2022-08-01T21:08:07.781Z,20.00
2022-08-01T21:10:36.645Z,20.00
2022-08-01T21:13:06.335Z,20.00
2022-08-01T21:15:57.437Z,20.10
2022-08-01T21:18:58.222Z,20.00
2022-08-01T21:21:38.634Z,20.00
2022-08-01T21:24:17.639Z,20.00
2022-08-01T21:26:48.194Z,20.00
2022-08-01T21:29:16.905Z,20.00
2022-08-01T21:32:08.293Z,20.00
2022-08-01T21:34:38.431Z,19.90
2022-08-01T21:37:09.706Z,19.90
2022-08-01T21:39:37.940Z,19.80
2022-08-01T21:42:09.123Z,19.80
2022-08-01T21:44:42.575Z,19.70
2022-08-01T21:47:11.925Z,19.70
2022-08-01T21:49:41.309Z,19.50
2022-08-01T21:52:21.727Z,19.50
2022-08-01T21:55:03.212Z,19.30
2022-08-01T21:57:53.398Z,19.20
2022-08-01T22:00:25.524Z,19.10
2022-08-01T22:03:14.816Z,19.10
2022-08-01T22:05:51.173Z,19.00
2022-08-01T22:08:44.681Z,18.90
2022-08-01T22:11:14.198Z,18.90
2022-08-01T22:13:42.321Z,18.80
2022-08-01T22:16:12.533Z,18.80
2022-08-01T22:18:39.681Z,18.70
2022-08-01T22:21:07.750Z,18.60
2022-08-01T22:23:37.109Z,18.50
2022-08-01T22:26:14.681Z,18.40
2022-08-01T22:28:41.805Z,18.30
2022-08-01T22:31:08.865Z,18.20
2022-08-01T22:33:41.070Z,18.10
2022-08-01T22:36:07.955Z,18.10
2022-08-01T22:38:35.163Z,18.20
2022-08-01T22:41:08.916Z,18.10
2022-08-01T22:43:57.410Z,18.10
2022-08-01T22:46:29.210Z,18.10
2022-08-01T22:49:09.375Z,18.20
2022-08-01T22:51:55.735Z,18.20
2022-08-01T22:54:30.204Z,18.10
2022-08-01T22:56:59.898Z,18.10
2022-08-01T22:59:42.352Z,18.10
2022-08-01T23:02:16.267Z,18.10
2022-08-01T23:04:48.962Z,18.00
2022-08-01T23:07:21.457Z,18.00
2022-08-01T23:09:53.498Z,18.00
2022-08-01T23:12:24.228Z,18.00
2022-08-01T23:14:57.474Z,18.00
2022-08-01T23:17:30.722Z,18.00
2022-08-01T23:20:17.291Z,18.10
2022-08-01T23:22:48.816Z,18.10
2022-08-01T23:25:17.607Z,18.10
2022-08-01T23:27:55.706Z,18.10
2022-08-01T23:30:34.863Z,18.10
2022-08-01T23:33:02.406Z,18.10
2022-08-01T23:35:30.744Z,18.10
2022-08-01T23:38:02.330Z,18.10
2022-08-01T23:40:32.743Z,18.10
2022-08-01T23:43:02.464Z,18.00
2022-08-01T23:46:01.694Z,18.00
2022-08-01T23:48:17.946Z,18.00
2022-08-01T23:50:45.020Z,18.00
2022-08-01T23:53:13.013Z,18.00
2022-08-01T23:55:44.088Z,18.00
2022-08-01T23:58:13.197Z,18.00
